sensor_id;sensor_type;location;lat;lon;timestamp;pressure;altitude;pressure_sealevel;temperature;humidity
55271;BME280;41132;47.162;9.470;2023-01-28T00:00:27;96786.69;;;-0.22;100.00
55271;BME280;41132;47.162;9.470;2023-01-28T00:02:53;96790.03;;;-0.20;100.00
55271;BME280;41132;47.162;9.470;2023-01-28T00:05:18;96791.19;;;-0.26;100.00
55271;BME280;41132;47.162;9.470;2023-01-28T00:07:44;96783.13;;;-0.19;100.00
55271;BME280;41132;47.162;9.470;2023-01-28T00:10:09;96790.69;;;-0.16;100.00
55271;BME280;41132;47.162;9.470;2023-01-28T00:12:35;96787.03;;;-0.28;100.00
55271;BME280;41132;47.162;9.470;2023-01-28T00:15:01;96789.53;;;-0.27;100.00
55271;BME280;41132;47.162;9.470;2023-01-28T00:17:26;96786.03;;;-0.26;100.00
55271;BME280;41132;47.162;9.470;2023-01-28T00:19:51;96783.94;;;-0.35;100.00
55271;BME280;41132;47.162;9.470;2023-01-28T00:22:17;96792.34;;;-0.31;100.00
55271;BME280;41132;47.162;9.470;2023-01-28T00:24:42;96789.03;;;-0.17;100.00
55271;BME280;41132;47.162;9.470;2023-01-28T00:27:08;96787.84;;;-0.12;100.00
55271;BME280;41132;47.162;9.470;2023-01-28T00:29:33;96780.88;;;-0.10;100.00
55271;BME280;41132;47.162;9.470;2023-01-28T00:31:58;96786.59;;;-0.05;100.00
55271;BME280;41132;47.162;9.470;2023-01-28T00:34:24;96785.03;;;-0.23;100.00
55271;BME280;41132;47.162;9.470;2023-01-28T00:36:49;96792.63;;;-0.20;100.00
55271;BME280;41132;47.162;9.470;2023-01-28T00:39:22;96785.28;;;-0.12;100.00
55271;BME280;41132;47.162;9.470;2023-01-28T00:41:48;96783.88;;;-0.02;100.00
55271;BME280;41132;47.162;9.470;2023-01-28T00:44:14;96783.63;;;0.03;100.00
55271;BME280;41132;47.162;9.470;2023-01-28T00:46:39;96780.38;;;-0.01;100.00
55271;BME280;41132;47.162;9.470;2023-01-28T00:49:06;96774.88;;;-0.10;100.00
55271;BME280;41132;47.162;9.470;2023-01-28T00:51:31;96784.53;;;-0.14;100.00
55271;BME280;41132;47.162;9.470;2023-01-28T00:53:57;96770.53;;;-0.10;100.00
55271;BME280;41132;47.162;9.470;2023-01-28T00:56:22;96762.56;;;-0.21;100.00
55271;BME280;41132;47.162;9.470;2023-01-28T00:58:48;96776.13;;;-0.17;100.00
55271;BME280;41132;47.162;9.470;2023-01-28T01:01:23;96773.13;;;-0.10;100.00
55271;BME280;41132;47.162;9.470;2023-01-28T01:03:49;96783.88;;;-0.02;100.00
55271;BME280;41132;47.162;9.470;2023-01-28T01:06:35;96779.47;;;-0.15;100.00
55271;BME280;41132;47.162;9.470;2023-01-28T01:09:04;96777.88;;;-0.34;100.00
55271;BME280;41132;47.162;9.470;2023-01-28T01:11:30;96797.09;;;-0.24;100.00
55271;BME280;41132;47.162;9.470;2023-01-28T01:13:58;96781.78;;;-0.27;100.00
55271;BME280;41132;47.162;9.470;2023-01-28T01:16:28;96787.72;;;-0.09;100.00
55271;BME280;41132;47.162;9.470;2023-01-28T01:18:56;96789.19;;;-0.05;100.00
55271;BME280;41132;47.162;9.470;2023-01-28T01:21:23;96786.53;;;-0.03;100.00
55271;BME280;41132;47.162;9.470;2023-01-28T01:23:50;96784.78;;;0.13;100.00
55271;BME280;41132;47.162;9.470;2023-01-28T01:26:17;96772.22;;;0.07;100.00
55271;BME280;41132;47.162;9.470;2023-01-28T01:28:42;96789.34;;;0.08;100.00
55271;BME280;41132;47.162;9.470;2023-01-28T01:31:12;96785.28;;;0.04;100.00
55271;BME280;41132;47.162;9.470;2023-01-28T01:33:39;96792.63;;;-0.04;100.00
55271;BME280;41132;47.162;9.470;2023-01-28T01:36:05;96789.38;;;-0.08;100.00
55271;BME280;41132;47.162;9.470;2023-01-28T01:41:22;96797.34;;;-0.28;100.00
55271;BME280;41132;47.162;9.470;2023-01-28T01:43:48;96800.50;;;-0.23;100.00
55271;BME280;41132;47.162;9.470;2023-01-28T01:46:17;96805.91;;;-0.12;100.00
55271;BME280;41132;47.162;9.470;2023-01-28T01:48:44;96790.69;;;-0.16;100.00
55271;BME280;41132;47.162;9.470;2023-01-28T01:51:12;96795.53;;;-0.10;100.00
55271;BME280;41132;47.162;9.470;2023-01-28T01:53:42;96801.00;;;-0.16;100.00
55271;BME280;41132;47.162;9.470;2023-01-28T01:56:10;96788.84;;;-0.14;100.00
55271;BME280;41132;47.162;9.470;2023-01-28T01:58:39;96798.03;;;-0.09;100.00
55271;BME280;41132;47.162;9.470;2023-01-28T02:01:06;96800.75;;;-0.12;100.00
55271;BME280;41132;47.162;9.470;2023-01-28T02:03:46;96808.16;;;-0.22;100.00
55271;BME280;41132;47.162;9.470;2023-01-28T02:06:12;96804.59;;;-0.19;100.00
55271;BME280;41132;47.162;9.470;2023-01-28T02:08:37;96797.91;;;-0.23;100.00
55271;BME280;41132;47.162;9.470;2023-01-28T02:16:13;96787.03;;;0.04;100.00
55271;BME280;41132;47.162;9.470;2023-01-28T02:18:39;96776.53;;;-0.09;100.00
55271;BME280;41132;47.162;9.470;2023-01-28T02:29:43;96798.84;;;-0.08;100.00
55271;BME280;41132;47.162;9.470;2023-01-28T02:32:19;96796.59;;;-0.14;100.00
55271;BME280;41132;47.162;9.470;2023-01-28T02:40:23;96808.09;;;-0.20;100.00
55271;BME280;41132;47.162;9.470;2023-01-28T02:42:49;96799.50;;;-0.21;100.00
55271;BME280;41132;47.162;9.470;2023-01-28T02:45:22;96798.78;;;-0.07;100.00
55271;BME280;41132;47.162;9.470;2023-01-28T02:47:48;96795.44;;;-0.09;100.00
55271;BME280;41132;47.162;9.470;2023-01-28T02:50:27;96798.03;;;-0.25;100.00
55271;BME280;41132;47.162;9.470;2023-01-28T02:53:19;96795.69;;;-0.29;100.00
55271;BME280;41132;47.162;9.470;2023-01-28T02:56:29;96798.16;;;-0.28;100.00
55271;BME280;41132;47.162;9.470;2023-01-28T03:02:26;96803.00;;;-0.22;100.00
55271;BME280;41132;47.162;9.470;2023-01-28T03:07:34;96798.84;;;-0.24;100.00
55271;BME280;41132;47.162;9.470;2023-01-28T03:10:03;96804.19;;;-0.27;100.00
55271;BME280;41132;47.162;9.470;2023-01-28T03:12:30;96806.50;;;-0.38;100.00
55271;BME280;41132;47.162;9.470;2023-01-28T03:15:25;96810.41;;;-0.31;100.00
55271;BME280;41132;47.162;9.470;2023-01-28T03:18:20;96813.22;;;-0.36;100.00
55271;BME280;41132;47.162;9.470;2023-01-28T03:21:09;96805.41;;;-0.34;100.00
55271;BME280;41132;47.162;9.470;2023-01-28T03:23:59;96812.81;;;-0.28;100.00
55271;BME280;41132;47.162;9.470;2023-01-28T03:26:55;96814.56;;;-0.29;100.00
55271;BME280;41132;47.162;9.470;2023-01-28T03:29:43;96817.47;;;-0.35;100.00
55271;BME280;41132;47.162;9.470;2023-01-28T03:32:28;96811.22;;;-0.31;100.00
55271;BME280;41132;47.162;9.470;2023-01-28T03:35:14;96808.66;;;-0.31;100.00
55271;BME280;41132;47.162;9.470;2023-01-28T03:38:00;96814.00;;;-0.34;100.00
55271;BME280;41132;47.162;9.470;2023-01-28T03:40:54;96822.31;;;-0.29;100.00
55271;BME280;41132;47.162;9.470;2023-01-28T03:43:20;96822.66;;;-0.19;100.00
55271;BME280;41132;47.162;9.470;2023-01-28T03:45:45;96823.97;;;-0.28;100.00
55271;BME280;41132;47.162;9.470;2023-01-28T03:48:16;96822.00;;;-0.23;100.00
55271;BME280;41132;47.162;9.470;2023-01-28T03:50:42;96823.84;;;-0.09;100.00
55271;BME280;41132;47.162;9.470;2023-01-28T03:53:07;96830.34;;;-0.35;100.00
55271;BME280;41132;47.162;9.470;2023-01-28T03:55:42;96825.28;;;-0.21;100.00
55271;BME280;41132;47.162;9.470;2023-01-28T03:58:09;96824.13;;;-0.31;100.00
55271;BME280;41132;47.162;9.470;2023-01-28T04:00:34;96817.09;;;-0.11;100.00
55271;BME280;41132;47.162;9.470;2023-01-28T04:03:17;96825.50;;;-0.08;100.00
55271;BME280;41132;47.162;9.470;2023-01-28T04:06:04;96829.97;;;-0.27;100.00
55271;BME280;41132;47.162;9.470;2023-01-28T04:08:30;96818.38;;;-0.36;100.00
55271;BME280;41132;47.162;9.470;2023-01-28T04:10:55;96830.63;;;-0.24;100.00
55271;BME280;41132;47.162;9.470;2023-01-28T04:13:21;96829.88;;;-0.26;100.00
55271;BME280;41132;47.162;9.470;2023-01-28T04:15:46;96822.63;;;-0.35;100.00
55271;BME280;41132;47.162;9.470;2023-01-28T04:18:12;96824.44;;;-0.37;100.00
55271;BME280;41132;47.162;9.470;2023-01-28T04:20:38;96833.94;;;-0.37;100.00
55271;BME280;41132;47.162;9.470;2023-01-28T04:23:04;96831.78;;;-0.45;100.00
55271;BME280;41132;47.162;9.470;2023-01-28T04:25:31;96836.75;;;-0.42;100.00
55271;BME280;41132;47.162;9.470;2023-01-28T04:27:56;96827.47;;;-0.29;100.00
55271;BME280;41132;47.162;9.470;2023-01-28T04:30:22;96831.00;;;-0.47;100.00
55271;BME280;41132;47.162;9.470;2023-01-28T04:32:48;96831.94;;;-0.32;100.00
55271;BME280;41132;47.162;9.470;2023-01-28T04:35:17;96830.91;;;-0.12;100.00
55271;BME280;41132;47.162;9.470;2023-01-28T04:37:43;96818.81;;;-0.28;100.00
55271;BME280;41132;47.162;9.470;2023-01-28T04:40:10;96829.88;;;-0.26;100.00
55271;BME280;41132;47.162;9.470;2023-01-28T04:42:36;96830.94;;;-0.30;100.00
55271;BME280;41132;47.162;9.470;2023-01-28T04:45:01;96829.31;;;-0.15;100.00
55271;BME280;41132;47.162;9.470;2023-01-28T04:47:27;96836.53;;;-0.22;100.00
55271;BME280;41132;47.162;9.470;2023-01-28T04:49:52;96832.81;;;-0.32;100.00
55271;BME280;41132;47.162;9.470;2023-01-28T04:52:18;96839.41;;;-0.44;100.00
55271;BME280;41132;47.162;9.470;2023-01-28T04:54:43;96844.88;;;-0.16;100.00
55271;BME280;41132;47.162;9.470;2023-01-28T04:57:08;96848.78;;;-0.09;100.00
55271;BME280;41132;47.162;9.470;2023-01-28T04:59:34;96851.13;;;-0.05;100.00
55271;BME280;41132;47.162;9.470;2023-01-28T05:01:59;96845.81;;;-0.02;100.00
55271;BME280;41132;47.162;9.470;2023-01-28T05:04:25;96853.66;;;-0.36;100.00
55271;BME280;41132;47.162;9.470;2023-01-28T05:06:50;96850.06;;;-0.50;100.00
55271;BME280;41132;47.162;9.470;2023-01-28T05:09:15;96843.28;;;-0.52;100.00
55271;BME280;41132;47.162;9.470;2023-01-28T05:11:41;96852.56;;;-0.32;100.00
55271;BME280;41132;47.162;9.470;2023-01-28T05:14:06;96852.25;;;-0.26;100.00
55271;BME280;41132;47.162;9.470;2023-01-28T05:16:32;96856.84;;;-0.31;100.00
55271;BME280;41132;47.162;9.470;2023-01-28T05:18:59;96863.31;;;-0.40;100.00
55271;BME280;41132;47.162;9.470;2023-01-28T05:21:25;96863.53;;;-0.45;100.00
55271;BME280;41132;47.162;9.470;2023-01-28T05:23:51;96865.94;;;-0.42;100.00
55271;BME280;41132;47.162;9.470;2023-01-28T05:26:16;96860.25;;;-0.31;100.00
55271;BME280;41132;47.162;9.470;2023-01-28T05:28:42;96862.78;;;-0.47;100.00
55271;BME280;41132;47.162;9.470;2023-01-28T05:31:09;96860.75;;;-0.57;100.00
55271;BME280;41132;47.162;9.470;2023-01-28T05:33:35;96857.41;;;-0.59;100.00
55271;BME280;41132;47.162;9.470;2023-01-28T05:38:35;96852.06;;;-0.72;100.00
55271;BME280;41132;47.162;9.470;2023-01-28T05:41:00;96868.09;;;-0.50;100.00
55271;BME280;41132;47.162;9.470;2023-01-28T05:43:26;96861.84;;;-0.46;100.00
55271;BME280;41132;47.162;9.470;2023-01-28T05:45:52;96865.44;;;-0.48;100.00
55271;BME280;41132;47.162;9.470;2023-01-28T05:48:18;96865.84;;;-0.56;100.00
55271;BME280;41132;47.162;9.470;2023-01-28T05:50:46;96874.16;;;-0.51;100.00
55271;BME280;41132;47.162;9.470;2023-01-28T05:53:11;96866.72;;;-0.57;100.00
55271;BME280;41132;47.162;9.470;2023-01-28T05:55:37;96874.63;;;-0.60;100.00
55271;BME280;41132;47.162;9.470;2023-01-28T05:58:02;96874.16;;;-0.68;100.00
55271;BME280;41132;47.162;9.470;2023-01-28T06:00:27;96877.75;;;-0.71;100.00
55271;BME280;41132;47.162;9.470;2023-01-28T06:08:04;96887.38;;;-0.74;100.00
55271;BME280;41132;47.162;9.470;2023-01-28T06:10:30;96890.72;;;-0.72;100.00
55271;BME280;41132;47.162;9.470;2023-01-28T06:12:56;96888.38;;;-0.77;100.00
55271;BME280;41132;47.162;9.470;2023-01-28T06:20:45;96897.84;;;-0.77;100.00
55271;BME280;41132;47.162;9.470;2023-01-28T06:23:10;96905.34;;;-0.73;100.00
55271;BME280;41132;47.162;9.470;2023-01-28T06:25:35;96896.34;;;-0.81;100.00
55271;BME280;41132;47.162;9.470;2023-01-28T06:28:01;96890.19;;;-0.96;100.00
55271;BME280;41132;47.162;9.470;2023-01-28T06:30:26;96915.88;;;-0.77;100.00
55271;BME280;41132;47.162;9.470;2023-01-28T06:32:55;96912.31;;;-0.92;100.00
55271;BME280;41132;47.162;9.470;2023-01-28T06:35:21;96905.09;;;-1.03;100.00
55271;BME280;41132;47.162;9.470;2023-01-28T06:37:46;96921.88;;;-0.94;100.00
55271;BME280;41132;47.162;9.470;2023-01-28T06:40:12;96907.47;;;-0.98;100.00
55271;BME280;41132;47.162;9.470;2023-01-28T06:42:37;96915.50;;;-0.87;100.00
55271;BME280;41132;47.162;9.470;2023-01-28T06:45:03;96906.09;;;-1.06;100.00
55271;BME280;41132;47.162;9.470;2023-01-28T06:47:28;96924.16;;;-0.88;100.00
55271;BME280;41132;47.162;9.470;2023-01-28T06:49:54;96908.22;;;-0.96;100.00
55271;BME280;41132;47.162;9.470;2023-01-28T06:52:19;96921.66;;;-0.90;100.00
55271;BME280;41132;47.162;9.470;2023-01-28T06:54:44;96930.28;;;-0.73;100.00
55271;BME280;41132;47.162;9.470;2023-01-28T06:57:10;96923.84;;;-0.82;100.00
55271;BME280;41132;47.162;9.470;2023-01-28T06:59:35;96922.41;;;-0.88;100.00
55271;BME280;41132;47.162;9.470;2023-01-28T07:02:00;96923.47;;;-0.74;100.00
55271;BME280;41132;47.162;9.470;2023-01-28T07:04:26;96930.88;;;-0.68;100.00
55271;BME280;41132;47.162;9.470;2023-01-28T07:06:51;96928.84;;;-0.61;100.00
55271;BME280;41132;47.162;9.470;2023-01-28T07:09:16;96934.16;;;-0.65;100.00
55271;BME280;41132;47.162;9.470;2023-01-28T07:11:42;96931.66;;;-0.66;100.00
55271;BME280;41132;47.162;9.470;2023-01-28T07:14:07;96929.38;;;-0.55;100.00
55271;BME280;41132;47.162;9.470;2023-01-28T07:16:32;96927.31;;;-0.48;100.00
55271;BME280;41132;47.162;9.470;2023-01-28T07:18:58;96925.97;;;-0.38;100.00
55271;BME280;41132;47.162;9.470;2023-01-28T07:21:23;96934.91;;;-0.45;100.00
55271;BME280;41132;47.162;9.470;2023-01-28T07:23:48;96932.03;;;-0.56;100.00
55271;BME280;41132;47.162;9.470;2023-01-28T07:26:14;96928.31;;;-0.68;100.00
55271;BME280;41132;47.162;9.470;2023-01-28T07:28:40;96941.97;;;-0.66;100.00
55271;BME280;41132;47.162;9.470;2023-01-28T07:31:05;96938.94;;;-0.74;100.00
55271;BME280;41132;47.162;9.470;2023-01-28T07:33:30;96939.06;;;-0.77;100.00
55271;BME280;41132;47.162;9.470;2023-01-28T07:35:56;96933.91;;;-0.77;100.00
55271;BME280;41132;47.162;9.470;2023-01-28T07:38:21;96951.22;;;-0.79;100.00
55271;BME280;41132;47.162;9.470;2023-01-28T07:40:47;96942.97;;;-0.86;100.00
55271;BME280;41132;47.162;9.470;2023-01-28T07:43:12;96957.97;;;-0.77;100.00
55271;BME280;41132;47.162;9.470;2023-01-28T07:45:38;96969.44;;;-0.65;100.00
55271;BME280;41132;47.162;9.470;2023-01-28T07:48:06;96956.66;;;-0.68;100.00
55271;BME280;41132;47.162;9.470;2023-01-28T07:50:34;96969.63;;;-0.52;100.00
55271;BME280;41132;47.162;9.470;2023-01-28T07:53:03;96971.56;;;-0.56;100.00
55271;BME280;41132;47.162;9.470;2023-01-28T07:58:05;96966.97;;;-0.68;100.00
55271;BME280;41132;47.162;9.470;2023-01-28T08:05:46;96979.00;;;-0.50;98.59
55271;BME280;41132;47.162;9.470;2023-01-28T08:08:12;96985.28;;;-0.38;97.32
55271;BME280;41132;47.162;9.470;2023-01-28T08:10:38;96984.59;;;-0.24;94.42
55271;BME280;41132;47.162;9.470;2023-01-28T08:13:04;96997.41;;;-0.23;95.64
55271;BME280;41132;47.162;9.470;2023-01-28T08:15:30;96996.34;;;-0.36;95.85
55271;BME280;41132;47.162;9.470;2023-01-28T08:17:56;96992.03;;;-0.53;94.44
55271;BME280;41132;47.162;9.470;2023-01-28T08:20:24;97002.81;;;-0.45;94.53
55271;BME280;41132;47.162;9.470;2023-01-28T08:22:49;97006.50;;;-0.33;95.85
55271;BME280;41132;47.162;9.470;2023-01-28T08:25:15;97006.88;;;-0.23;93.24
55271;BME280;41132;47.162;9.470;2023-01-28T08:27:40;97016.97;;;-0.18;95.48
55271;BME280;41132;47.162;9.470;2023-01-28T08:30:06;97011.91;;;-0.37;93.15
55271;BME280;41132;47.162;9.470;2023-01-28T08:32:33;97011.38;;;-0.44;93.34
55271;BME280;41132;47.162;9.470;2023-01-28T08:34:58;96995.91;;;-0.27;91.90
55271;BME280;41132;47.162;9.470;2023-01-28T08:37:24;96992.78;;;-0.16;94.43
55271;BME280;41132;47.162;9.470;2023-01-28T08:39:49;97010.03;;;-0.34;92.06
55271;BME280;41132;47.162;9.470;2023-01-28T08:42:15;97012.81;;;-0.38;93.72
55271;BME280;41132;47.162;9.470;2023-01-28T08:44:41;97024.03;;;-0.39;94.48
55271;BME280;41132;47.162;9.470;2023-01-28T08:47:06;97022.16;;;-0.36;94.52
55271;BME280;41132;47.162;9.470;2023-01-28T08:49:32;97032.16;;;-0.30;95.07
55271;BME280;41132;47.162;9.470;2023-01-28T08:51:57;97024.50;;;-0.31;94.52
55271;BME280;41132;47.162;9.470;2023-01-28T08:54:22;97032.38;;;-0.34;94.83
55271;BME280;41132;47.162;9.470;2023-01-28T08:56:48;97029.66;;;-0.31;94.70
55271;BME280;41132;47.162;9.470;2023-01-28T08:59:14;97032.84;;;-0.26;97.16
55271;BME280;41132;47.162;9.470;2023-01-28T09:01:40;97043.84;;;-0.23;96.73
55271;BME280;41132;47.162;9.470;2023-01-28T09:04:05;97040.34;;;-0.04;98.26
55271;BME280;41132;47.162;9.470;2023-01-28T09:06:31;97036.84;;;0.14;96.36
55271;BME280;41132;47.162;9.470;2023-01-28T09:08:58;97040.66;;;0.07;96.46
55271;BME280;41132;47.162;9.470;2023-01-28T09:11:24;97037.38;;;0.04;95.60
55271;BME280;41132;47.162;9.470;2023-01-28T09:13:49;97036.84;;;0.14;96.64
55271;BME280;41132;47.162;9.470;2023-01-28T09:18:46;97017.84;;;0.15;95.58
55271;BME280;41132;47.162;9.470;2023-01-28T09:26:22;97039.28;;;0.00;97.04
55271;BME280;41132;47.162;9.470;2023-01-28T09:28:48;97045.53;;;-0.04;95.76
55271;BME280;41132;47.162;9.470;2023-01-28T09:31:13;97046.34;;;-0.04;95.61
55271;BME280;41132;47.162;9.470;2023-01-28T09:33:39;97045.94;;;0.04;95.65
55271;BME280;41132;47.162;9.470;2023-01-28T09:36:07;97048.75;;;0.17;95.55
55271;BME280;41132;47.162;9.470;2023-01-28T09:41:27;97052.91;;;0.19;95.58
55271;BME280;41132;47.162;9.470;2023-01-28T09:44:23;97052.31;;;0.14;95.53
55271;BME280;41132;47.162;9.470;2023-01-28T09:46:59;97062.06;;;0.09;97.15
55271;BME280;41132;47.162;9.470;2023-01-28T09:49:36;97063.47;;;0.15;97.13
55271;BME280;41132;47.162;9.470;2023-01-28T09:52:04;97067.00;;;-0.04;96.49
55271;BME280;41132;47.162;9.470;2023-01-28T09:54:45;97067.69;;;0.00;96.15
55271;BME280;41132;47.162;9.470;2023-01-28T10:10:47;97057.63;;;0.29;95.40
55271;BME280;41132;47.162;9.470;2023-01-28T10:16:00;97044.47;;;0.33;96.44
55271;BME280;41132;47.162;9.470;2023-01-28T10:18:37;97052.75;;;0.23;97.68
55271;BME280;41132;47.162;9.470;2023-01-28T10:21:17;97050.94;;;0.25;96.53
55271;BME280;41132;47.162;9.470;2023-01-28T10:24:02;97057.28;;;0.52;97.95
55271;BME280;41132;47.162;9.470;2023-01-28T10:26:39;97051.84;;;0.41;98.26
55271;BME280;41132;47.162;9.470;2023-01-28T10:29:31;97052.13;;;0.52;98.47
55271;BME280;41132;47.162;9.470;2023-01-28T10:32:25;97052.78;;;0.72;97.18
55271;BME280;41132;47.162;9.470;2023-01-28T10:34:52;97042.91;;;0.96;95.43
55271;BME280;41132;47.162;9.470;2023-01-28T10:37:18;97031.69;;;0.79;94.87
55271;BME280;41132;47.162;9.470;2023-01-28T10:39:44;97026.44;;;0.65;95.39
55271;BME280;41132;47.162;9.470;2023-01-28T10:42:37;97032.69;;;0.61;94.11
55271;BME280;41132;47.162;9.470;2023-01-28T10:45:12;97026.78;;;0.75;96.63
55271;BME280;41132;47.162;9.470;2023-01-28T10:47:45;97024.88;;;0.94;97.12
55271;BME280;41132;47.162;9.470;2023-01-28T10:50:16;97030.97;;;0.93;95.07
55271;BME280;41132;47.162;9.470;2023-01-28T10:53:12;97027.03;;;0.86;95.50
55271;BME280;41132;47.162;9.470;2023-01-28T10:55:48;97023.13;;;0.79;92.11
55271;BME280;41132;47.162;9.470;2023-01-28T10:58:29;97020.28;;;0.68;92.86
55271;BME280;41132;47.162;9.470;2023-01-28T11:00:59;97018.38;;;0.71;93.05
55271;BME280;41132;47.162;9.470;2023-01-28T11:42:25;97025.88;;;1.84;80.16
55271;BME280;41132;47.162;9.470;2023-01-28T11:44:50;97016.53;;;1.81;83.46
55271;BME280;41132;47.162;9.470;2023-01-28T11:52:33;97026.97;;;2.10;79.90
55271;BME280;41132;47.162;9.470;2023-01-28T12:05:39;97012.09;;;1.69;84.01
55271;BME280;41132;47.162;9.470;2023-01-28T12:13:54;96986.44;;;1.80;85.30
55271;BME280;41132;47.162;9.470;2023-01-28T12:20:02;96999.97;;;1.70;85.15
55271;BME280;41132;47.162;9.470;2023-01-28T12:22:42;96994.66;;;1.73;85.13
55271;BME280;41132;47.162;9.470;2023-01-28T12:25:50;96990.66;;;1.67;85.40
55271;BME280;41132;47.162;9.470;2023-01-28T13:13:37;96987.22;;;1.66;81.48
55271;BME280;41132;47.162;9.470;2023-01-28T13:18:43;96963.69;;;1.41;83.45
55271;BME280;41132;47.162;9.470;2023-01-28T13:24:16;96997.47;;;1.68;83.89
55271;BME280;41132;47.162;9.470;2023-01-28T13:26:46;97001.41;;;1.75;82.92
55271;BME280;41132;47.162;9.470;2023-01-28T13:31:51;96997.56;;;1.66;85.09
55271;BME280;41132;47.162;9.470;2023-01-28T13:36:59;97011.25;;;1.38;84.04
55271;BME280;41132;47.162;9.470;2023-01-28T13:39:26;97010.66;;;1.63;85.31
55271;BME280;41132;47.162;9.470;2023-01-28T13:41:55;97014.50;;;1.72;84.82
55271;BME280;41132;47.162;9.470;2023-01-28T13:44:30;97019.56;;;1.59;85.58
55271;BME280;41132;47.162;9.470;2023-01-28T13:47:14;97029.72;;;1.62;85.65
55271;BME280;41132;47.162;9.470;2023-01-28T13:49:46;97032.03;;;1.37;88.12
55271;BME280;41132;47.162;9.470;2023-01-28T13:52:26;97033.63;;;1.23;89.94
55271;BME280;41132;47.162;9.470;2023-01-28T14:11:56;97045.56;;;1.10;92.91
55271;BME280;41132;47.162;9.470;2023-01-28T14:14:52;97052.63;;;1.07;93.02
55271;BME280;41132;47.162;9.470;2023-01-28T14:17:43;97058.81;;;1.04;92.18
55271;BME280;41132;47.162;9.470;2023-01-28T14:20:16;97058.00;;;1.03;92.21
55271;BME280;41132;47.162;9.470;2023-01-28T14:22:42;97055.91;;;0.94;92.30
55271;BME280;41132;47.162;9.470;2023-01-28T14:25:13;97058.81;;;1.04;90.62
55271;BME280;41132;47.162;9.470;2023-01-28T14:27:43;97063.09;;;1.05;91.01
55271;BME280;41132;47.162;9.470;2023-01-28T14:35:28;97072.34;;;0.93;93.41
55271;BME280;41132;47.162;9.470;2023-01-28T14:40:28;97070.34;;;0.98;92.44
55271;BME280;41132;47.162;9.470;2023-01-28T14:42:55;97076.91;;;0.88;92.49
55271;BME280;41132;47.162;9.470;2023-01-28T14:56:15;97084.81;;;0.85;93.19
55271;BME280;41132;47.162;9.470;2023-01-28T14:58:49;97078.22;;;0.95;92.50
55271;BME280;41132;47.162;9.470;2023-01-28T15:01:25;97085.34;;;0.92;92.63
55271;BME280;41132;47.162;9.470;2023-01-28T15:03:51;97096.06;;;1.00;92.00
55271;BME280;41132;47.162;9.470;2023-01-28T15:06:23;97082.59;;;1.11;92.51
55271;BME280;41132;47.162;9.470;2023-01-28T15:08:52;97083.09;;;1.01;92.18
55271;BME280;41132;47.162;9.470;2023-01-28T15:11:25;97094.34;;;0.85;93.71
55271;BME280;41132;47.162;9.470;2023-01-28T15:13:56;97085.53;;;1.04;92.02
55271;BME280;41132;47.162;9.470;2023-01-28T15:16:25;97082.44;;;0.98;93.27
55271;BME280;41132;47.162;9.470;2023-01-28T15:18:56;97071.97;;;0.83;92.65
55271;BME280;41132;47.162;9.470;2023-01-28T15:21:24;97103.19;;;0.96;94.11
55271;BME280;41132;47.162;9.470;2023-01-28T15:23:54;97088.94;;;1.05;93.41
55271;BME280;41132;47.162;9.470;2023-01-28T15:26:23;97107.03;;;1.05;93.05
55271;BME280;41132;47.162;9.470;2023-01-28T15:28:50;97103.84;;;1.16;92.83
55271;BME280;41132;47.162;9.470;2023-01-28T15:31:30;97104.28;;;1.08;94.25
55271;BME280;41132;47.162;9.470;2023-01-28T15:34:17;97103.94;;;0.98;92.62
55271;BME280;41132;47.162;9.470;2023-01-28T15:36:43;97100.78;;;0.93;94.16
55271;BME280;41132;47.162;9.470;2023-01-28T15:39:14;97109.44;;;1.08;94.03
55271;BME280;41132;47.162;9.470;2023-01-28T15:41:43;97115.19;;;1.13;93.14
55271;BME280;41132;47.162;9.470;2023-01-28T15:44:18;97105.72;;;1.14;91.97
55271;BME280;41132;47.162;9.470;2023-01-28T15:46:54;97107.38;;;1.15;90.88
55271;BME280;41132;47.162;9.470;2023-01-28T15:49:19;97121.03;;;1.17;91.90
55271;BME280;41132;47.162;9.470;2023-01-28T15:51:48;97116.78;;;1.16;91.77
55271;BME280;41132;47.162;9.470;2023-01-28T15:54:17;97117.38;;;1.05;92.04
55271;BME280;41132;47.162;9.470;2023-01-28T15:56:44;97116.69;;;1.17;92.78
55271;BME280;41132;47.162;9.470;2023-01-28T16:09:31;97129.19;;;0.93;91.71
55271;BME280;41132;47.162;9.470;2023-01-28T16:24:53;97135.72;;;1.00;88.50
55271;BME280;41132;47.162;9.470;2023-01-28T16:27:29;97154.91;;;1.12;89.34
55271;BME280;41132;47.162;9.470;2023-01-28T16:29:57;97149.28;;;1.04;87.29
55271;BME280;41132;47.162;9.470;2023-01-28T16:42:47;97167.53;;;0.85;88.74
55271;BME280;41132;47.162;9.470;2023-01-28T16:45:21;97188.97;;;0.87;88.96
55271;BME280;41132;47.162;9.470;2023-01-28T16:47:47;97187.28;;;0.86;88.27
55271;BME280;41132;47.162;9.470;2023-01-28T16:50:13;97185.84;;;0.80;88.74
55271;BME280;41132;47.162;9.470;2023-01-28T16:52:41;97184.78;;;0.85;88.64
55271;BME280;41132;47.162;9.470;2023-01-28T16:55:15;97193.81;;;0.93;89.95
55271;BME280;41132;47.162;9.470;2023-01-28T16:57:41;97184.91;;;0.99;90.04
55271;BME280;41132;47.162;9.470;2023-01-28T18:46:25;97251.22;;;1.16;86.94
55271;BME280;41132;47.162;9.470;2023-01-28T19:27:38;97290.13;;;0.97;92.33
55271;BME280;41132;47.162;9.470;2023-01-28T19:45:35;97294.59;;;1.11;89.26
55271;BME280;41132;47.162;9.470;2023-01-28T19:50:35;97302.53;;;1.08;91.42
55271;BME280;41132;47.162;9.470;2023-01-28T19:53:01;97298.41;;;1.03;92.71
55271;BME280;41132;47.162;9.470;2023-01-28T20:00:36;97291.88;;;0.96;91.71
55271;BME280;41132;47.162;9.470;2023-01-28T20:03:03;97292.88;;;0.94;93.00
55271;BME280;41132;47.162;9.470;2023-01-28T20:13:18;97272.72;;;0.83;94.01
55271;BME280;41132;47.162;9.470;2023-01-28T20:20:54;97268.91;;;0.90;89.79
55271;BME280;41132;47.162;9.470;2023-01-28T20:23:21;97280.09;;;0.91;92.01
55271;BME280;41132;47.162;9.470;2023-01-28T20:25:54;97279.41;;;0.87;92.03
55271;BME280;41132;47.162;9.470;2023-01-28T20:28:21;97275.38;;;0.81;91.79
55271;BME280;41132;47.162;9.470;2023-01-28T20:30:48;97274.78;;;0.76;90.97
55271;BME280;41132;47.162;9.470;2023-01-28T20:33:14;97297.56;;;0.86;92.39
55271;BME280;41132;47.162;9.470;2023-01-28T20:43:25;97310.81;;;0.62;94.89